createdAt,value
2019-04-04T00:00:27.441Z,33.46
2019-04-04T00:01:00.719Z,33.47
2019-04-04T00:01:33.938Z,33.52
2019-04-04T00:02:07.104Z,33.58
2019-04-04T00:02:38.384Z,33.67
2019-04-04T00:03:09.679Z,33.63
2019-04-04T00:03:42.970Z,33.72
2019-04-04T00:04:14.338Z,33.72
2019-04-04T00:04:45.622Z,33.77
2019-04-04T00:05:16.938Z,33.69
2019-04-04T00:05:48.214Z,33.79
2019-04-04T00:06:19.520Z,33.83
2019-04-04T00:06:51.815Z,33.88
2019-04-04T00:07:23.195Z,33.85
2019-04-04T00:07:54.475Z,33.87
2019-04-04T00:08:25.742Z,33.85
2019-04-04T00:08:57.045Z,33.85
2019-04-04T00:09:31.161Z,33.95
2019-04-04T00:10:05.003Z,33.95
2019-04-04T00:10:36.280Z,34.04
2019-04-04T00:11:07.661Z,34.23
2019-04-04T00:11:38.948Z,34.20
2019-04-04T00:12:10.353Z,34.15
2019-04-04T00:12:41.737Z,34.13
2019-04-04T00:13:13.047Z,34.27
2019-04-04T00:13:44.539Z,34.25
2019-04-04T00:14:15.919Z,34.38
2019-04-04T00:14:47.403Z,34.50
2019-04-04T00:15:18.797Z,34.48
2019-04-04T00:15:50.181Z,34.63
2019-04-04T00:16:21.573Z,34.55
2019-04-04T00:16:52.968Z,34.60
2019-04-04T00:17:24.395Z,34.65
2019-04-04T00:17:55.902Z,34.61
2019-04-04T00:18:27.996Z,34.63
2019-04-04T00:18:59.561Z,34.70
2019-04-04T00:19:30.983Z,34.67
2019-04-04T00:20:05.354Z,34.70
2019-04-04T00:20:37.772Z,34.68
2019-04-04T00:21:09.139Z,34.80
2019-04-04T00:21:40.475Z,34.83
2019-04-04T00:22:11.733Z,34.90
2019-04-04T00:22:43.185Z,34.95
2019-04-04T00:23:14.730Z,35.07
2019-04-04T00:23:46.173Z,35.02
2019-04-04T00:24:17.627Z,35.01
2019-04-04T00:24:49.073Z,34.97
2019-04-04T00:25:20.521Z,34.96
2019-04-04T00:25:52.962Z,35.02
2019-04-04T00:26:24.501Z,34.98
2019-04-04T00:26:56.034Z,34.99
2019-04-04T00:27:27.450Z,35.10
2019-04-04T00:27:58.838Z,35.18
2019-04-04T00:28:30.573Z,35.25
2019-04-04T00:29:02.128Z,35.29
2019-04-04T00:29:33.794Z,35.28
2019-04-04T00:30:05.980Z,35.35
2019-04-04T00:30:37.374Z,35.34
2019-04-04T00:31:08.763Z,35.28
2019-04-04T00:31:40.157Z,35.29
2019-04-04T00:32:11.538Z,35.36
2019-04-04T00:32:42.932Z,35.45
2019-04-04T00:33:14.320Z,35.50
2019-04-04T00:33:45.716Z,35.59
2019-04-04T00:34:17.298Z,35.56
2019-04-04T00:34:48.754Z,35.66
2019-04-04T00:35:20.196Z,35.77
2019-04-04T00:35:51.605Z,35.75
2019-04-04T00:36:23.002Z,35.68
2019-04-04T00:36:54.432Z,35.72
2019-04-04T00:37:25.729Z,35.82
2019-04-04T00:37:57.107Z,35.92
2019-04-04T00:38:29.921Z,35.90
2019-04-04T00:39:01.325Z,35.96
2019-04-04T00:39:33.003Z,36.06
2019-04-04T00:40:05.618Z,36.08
2019-04-04T00:40:37.001Z,36.10
2019-04-04T00:41:08.489Z,36.17
2019-04-04T00:41:39.877Z,36.11
2019-04-04T00:42:11.303Z,36.13
2019-04-04T00:42:42.705Z,36.18
2019-04-04T00:43:14.125Z,36.21
2019-04-04T00:43:45.665Z,36.33
2019-04-04T00:44:17.121Z,36.22
2019-04-04T00:44:48.565Z,36.18
2019-04-04T00:45:20.018Z,36.30
2019-04-04T00:45:51.479Z,36.38
2019-04-04T00:46:22.944Z,36.47
2019-04-04T00:46:54.519Z,36.40
2019-04-04T00:47:25.961Z,36.44
2019-04-04T00:47:57.394Z,36.50
2019-04-04T00:48:28.772Z,36.53
2019-04-04T00:49:00.574Z,36.65
2019-04-04T00:49:31.935Z,36.69
2019-04-04T00:50:06.701Z,36.74
2019-04-04T00:50:38.230Z,36.75
2019-04-04T00:51:10.658Z,36.74
2019-04-04T00:51:42.025Z,36.87
2019-04-04T00:52:13.438Z,36.82
2019-04-04T00:52:44.810Z,36.82
2019-04-04T00:53:16.344Z,36.87
2019-04-04T00:53:47.708Z,37.00
2019-04-04T00:54:19.128Z,37.10
2019-04-04T00:54:50.500Z,37.13
2019-04-04T00:55:22.030Z,37.11
2019-04-04T00:55:53.414Z,37.18
2019-04-04T00:56:24.740Z,37.22
2019-04-04T00:56:56.124Z,37.25
2019-04-04T00:57:27.441Z,37.29
2019-04-04T00:57:58.828Z,37.29
2019-04-04T00:58:30.470Z,37.38
2019-04-04T00:59:03.089Z,37.34
2019-04-04T00:59:34.613Z,37.39
2019-04-04T01:00:06.797Z,37.44
2019-04-04T01:00:38.264Z,37.41
2019-04-04T01:01:09.859Z,37.44
2019-04-04T01:01:41.398Z,37.54
2019-04-04T01:02:12.777Z,37.46
2019-04-04T01:02:44.315Z,37.53
2019-04-04T01:03:15.722Z,37.53
2019-04-04T01:03:47.183Z,37.58
2019-04-04T01:04:18.707Z,37.52
2019-04-04T01:04:50.161Z,37.55
2019-04-04T01:05:21.724Z,37.60
2019-04-04T01:05:53.187Z,37.64
2019-04-04T01:06:24.637Z,37.70
2019-04-04T01:06:56.196Z,37.79
2019-04-04T01:07:27.764Z,37.90
2019-04-04T01:07:59.220Z,37.86
2019-04-04T01:08:30.888Z,37.81
2019-04-04T01:09:05.112Z,37.75
2019-04-04T01:09:36.925Z,37.83
2019-04-04T01:10:08.295Z,37.85
2019-04-04T01:10:39.714Z,37.92
2019-04-04T01:11:11.091Z,37.99
2019-04-04T01:11:42.515Z,38.00
2019-04-04T01:12:13.879Z,38.07
2019-04-04T01:12:45.294Z,38.08
2019-04-04T01:13:16.692Z,38.16
2019-04-04T01:13:48.144Z,38.11
2019-04-04T01:14:19.899Z,38.15
2019-04-04T01:14:51.452Z,38.22
2019-04-04T01:15:22.988Z,38.17
2019-04-04T01:15:54.544Z,38.27
2019-04-04T01:16:27.007Z,38.25
2019-04-04T01:16:58.577Z,38.39
2019-04-04T01:17:30.120Z,38.32
2019-04-04T01:18:01.600Z,38.41
2019-04-04T01:18:33.028Z,38.49
2019-04-04T01:19:04.491Z,38.52
2019-04-04T01:19:35.917Z,38.63
2019-04-04T01:20:07.681Z,38.55
2019-04-04T01:20:39.094Z,38.66
2019-04-04T01:21:10.509Z,38.72
2019-04-04T01:21:41.991Z,38.60
2019-04-04T01:22:13.382Z,38.66
2019-04-04T01:22:44.809Z,38.78
2019-04-04T01:23:16.221Z,38.93
2019-04-04T01:23:47.725Z,38.98
2019-04-04T01:24:19.132Z,38.77
2019-04-04T01:24:50.547Z,38.89
2019-04-04T01:25:21.947Z,38.94
2019-04-04T01:25:53.341Z,38.88
2019-04-04T01:26:24.744Z,38.87
2019-04-04T01:26:56.140Z,38.92
2019-04-04T01:27:28.527Z,38.99
2019-04-04T01:27:59.926Z,39.07
2019-04-04T01:28:32.356Z,39.01
2019-04-04T01:29:05.741Z,39.08
2019-04-04T01:29:37.209Z,39.06
2019-04-04T01:30:11.740Z,39.12
2019-04-04T01:30:43.598Z,39.03
2019-04-04T01:31:15.648Z,39.08
2019-04-04T01:31:47.054Z,39.14
2019-04-04T01:32:18.370Z,39.21
2019-04-04T01:32:49.766Z,39.14
2019-04-04T01:33:21.104Z,39.20
2019-04-04T01:33:52.397Z,39.33
2019-04-04T01:34:23.692Z,39.40
2019-04-04T01:34:55.132Z,39.42
2019-04-04T01:35:26.538Z,39.39
2019-04-04T01:35:57.922Z,39.37
2019-04-04T01:36:29.313Z,39.40
2019-04-04T01:37:00.778Z,39.53
2019-04-04T01:37:32.071Z,39.50
2019-04-04T01:38:03.838Z,39.53
2019-04-04T01:38:35.243Z,39.55
2019-04-04T01:39:06.733Z,39.54
2019-04-04T01:39:38.183Z,39.63
2019-04-04T01:40:09.637Z,39.75
2019-04-04T01:40:40.990Z,39.71
2019-04-04T01:41:12.368Z,39.62
2019-04-04T01:41:43.719Z,39.69
2019-04-04T01:42:15.263Z,39.68
2019-04-04T01:42:47.719Z,39.79
2019-04-04T01:43:19.079Z,39.79
2019-04-04T01:44:04.145Z,39.89
2019-04-04T01:44:24.658Z,39.91
2019-04-04T01:44:55.981Z,39.91
2019-04-04T01:45:27.231Z,39.79
2019-04-04T01:45:58.654Z,40.02
2019-04-04T01:46:30.025Z,39.97
2019-04-04T01:47:01.443Z,39.90
2019-04-04T01:47:33.005Z,39.92
2019-04-04T01:48:04.335Z,39.94
2019-04-04T01:48:35.705Z,40.00
2019-04-04T01:49:07.033Z,40.09
2019-04-04T01:49:38.301Z,40.10
2019-04-04T01:50:09.729Z,40.10
2019-04-04T01:50:40.996Z,40.06
2019-04-04T01:51:12.319Z,40.20
2019-04-04T01:51:43.588Z,40.23
2019-04-04T01:52:14.916Z,40.32
2019-04-04T01:52:48.131Z,40.31
2019-04-04T01:53:19.506Z,40.35
2019-04-04T01:53:50.771Z,40.42
2019-04-04T01:54:22.205Z,40.47
2019-04-04T01:54:53.478Z,40.42
2019-04-04T01:55:24.835Z,40.41
2019-04-04T01:55:56.096Z,40.45
2019-04-04T01:56:27.424Z,40.57
2019-04-04T01:56:58.792Z,40.56
2019-04-04T01:57:30.523Z,40.46
2019-04-04T01:58:01.798Z,40.57
2019-04-04T01:58:33.464Z,40.62
2019-04-04T01:59:04.754Z,40.57
2019-04-04T01:59:36.074Z,40.65
2019-04-04T02:00:08.158Z,40.67
2019-04-04T02:00:39.596Z,40.78
2019-04-04T02:01:10.967Z,40.77
2019-04-04T02:01:42.264Z,40.80
2019-04-04T02:02:13.667Z,40.76
2019-04-04T02:02:45.024Z,40.81
2019-04-04T02:03:16.301Z,40.79
2019-04-04T02:03:47.724Z,40.79
2019-04-04T02:04:19.109Z,40.86
2019-04-04T02:04:50.385Z,40.92
2019-04-04T02:05:21.706Z,40.85
2019-04-04T02:05:52.977Z,40.85
2019-04-04T02:06:24.397Z,40.89
2019-04-04T02:06:58.815Z,40.85
2019-04-04T02:07:29.848Z,40.94
2019-04-04T02:08:01.687Z,40.83
2019-04-04T02:08:41.819Z,40.97
2019-04-04T02:09:13.225Z,41.00
2019-04-04T02:09:46.427Z,41.08
2019-04-04T02:10:17.676Z,41.08
2019-04-04T02:10:52.007Z,41.02
2019-04-04T02:11:23.295Z,41.07
2019-04-04T02:12:03.395Z,41.20
2019-04-04T02:12:34.691Z,41.07
2019-04-04T02:13:06.014Z,41.11
2019-04-04T02:13:38.876Z,41.08
2019-04-04T02:14:19.531Z,41.03
2019-04-04T02:14:56.806Z,41.25
2019-04-04T02:15:30.873Z,41.13
2019-04-04T02:16:02.161Z,41.11
2019-04-04T02:16:36.270Z,41.21
2019-04-04T02:17:15.270Z,41.26
2019-04-04T02:17:46.557Z,41.14
2019-04-04T02:18:17.864Z,41.17
2019-04-04T02:18:49.154Z,41.10
2019-04-04T02:19:20.478Z,41.17
2019-04-04T02:19:51.812Z,41.27
2019-04-04T02:20:23.177Z,41.22
2019-04-04T02:20:57.684Z,41.22
2019-04-04T02:21:28.782Z,41.27
2019-04-04T02:22:00.851Z,41.34
2019-04-04T02:22:32.207Z,41.37
2019-04-04T02:23:03.742Z,41.42
2019-04-04T02:23:35.083Z,41.37
2019-04-04T02:24:06.434Z,41.18
2019-04-04T02:24:37.846Z,41.22
2019-04-04T02:25:09.240Z,41.30
2019-04-04T02:25:40.714Z,41.20
2019-04-04T02:26:12.063Z,41.22
2019-04-04T02:26:43.442Z,41.27
2019-04-04T02:27:18.883Z,41.22
2019-04-04T02:27:50.195Z,41.28
2019-04-04T02:28:30.023Z,41.19
2019-04-04T02:29:06.951Z,41.20
2019-04-04T02:29:39.927Z,41.33
2019-04-04T02:30:21.145Z,41.28
2019-04-04T02:30:55.217Z,41.20
2019-04-04T02:31:34.318Z,41.26
2019-04-04T02:32:16.348Z,41.16
2019-04-04T02:32:53.838Z,41.19
2019-04-04T02:33:35.550Z,41.16
2019-04-04T02:34:09.649Z,41.17
2019-04-04T02:34:40.929Z,41.10
2019-04-04T02:35:12.220Z,41.30
2019-04-04T02:35:43.983Z,41.26
2019-04-04T02:36:16.762Z,41.22
2019-04-04T02:36:49.856Z,41.31
2019-04-04T02:37:22.079Z,41.30
2019-04-04T02:37:59.170Z,41.44
2019-04-04T02:38:30.689Z,41.27
2019-04-04T02:39:14.134Z,41.21
2019-04-04T02:39:51.273Z,41.13
2019-04-04T02:40:22.570Z,41.19
2019-04-04T02:40:53.916Z,41.21
2019-04-04T02:41:38.874Z,41.23
2019-04-04T02:42:10.213Z,41.22
2019-04-04T02:42:41.846Z,41.24
2019-04-04T02:43:13.202Z,41.25
2019-04-04T02:43:55.164Z,41.30
2019-04-04T02:44:26.502Z,41.28
2019-04-04T02:45:05.111Z,41.22
2019-04-04T02:45:48.795Z,41.20
2019-04-04T02:46:33.940Z,41.25
2019-04-04T02:47:17.339Z,41.16
2019-04-04T02:47:56.001Z,41.19
2019-04-04T02:48:33.204Z,41.35
2019-04-04T02:49:04.551Z,41.34
2019-04-04T02:49:35.935Z,41.45
2019-04-04T02:50:07.335Z,41.36
2019-04-04T02:50:38.629Z,41.35
2019-04-04T02:51:28.302Z,41.45
2019-04-04T02:52:07.142Z,41.35
2019-04-04T02:52:38.476Z,41.39
2019-04-04T02:53:10.899Z,41.47
2019-04-04T02:53:42.244Z,41.51
2019-04-04T02:54:13.589Z,41.50
2019-04-04T02:54:44.945Z,41.47
2019-04-04T02:55:21.902Z,41.59
2019-04-04T02:55:55.893Z,41.56
2019-04-04T02:56:34.973Z,41.57
2019-04-04T02:57:07.931Z,41.56
2019-04-04T02:58:15.046Z,41.57
2019-04-04T02:58:47.339Z,41.50
2019-04-04T02:59:22.060Z,41.56
2019-04-04T02:59:54.283Z,41.64
2019-04-04T03:00:30.383Z,41.64
2019-04-04T03:01:01.673Z,41.59
2019-04-04T03:01:35.972Z,41.56
2019-04-04T03:02:07.307Z,41.55
2019-04-04T03:02:38.662Z,41.61
2019-04-04T03:03:17.463Z,41.62
2019-04-04T03:03:57.706Z,41.75
2019-04-04T03:04:57.798Z,41.89
2019-04-04T03:05:31.667Z,41.69
2019-04-04T03:06:05.463Z,41.75
2019-04-04T03:06:36.801Z,41.80
2019-04-04T03:07:11.611Z,41.78
2019-04-04T03:07:45.569Z,41.81
2019-04-04T03:08:16.889Z,41.77
2019-04-04T03:09:09.046Z,41.80
2019-04-04T03:09:43.525Z,41.82
2019-04-04T03:10:16.481Z,41.88
2019-04-04T03:10:49.460Z,41.88
2019-04-04T03:11:40.002Z,41.90
2019-04-04T03:12:25.660Z,41.93
2019-04-04T03:12:58.502Z,41.82
2019-04-04T03:13:32.237Z,41.84
2019-04-04T03:14:04.757Z,41.94
2019-04-04T03:14:41.691Z,41.99
2019-04-04T03:15:13.017Z,41.99
2019-04-04T03:15:49.075Z,42.06
2019-04-04T03:16:21.513Z,42.06
2019-04-04T03:16:56.329Z,42.16
2019-04-04T03:17:32.634Z,42.07
2019-04-04T03:18:06.876Z,42.03
2019-04-04T03:18:38.232Z,42.01
2019-04-04T03:19:11.077Z,42.11
2019-04-04T03:19:43.787Z,42.10
2019-04-04T03:20:18.612Z,42.18
2019-04-04T03:20:52.763Z,42.25
2019-04-04T03:21:24.029Z,42.19
2019-04-04T03:21:56.483Z,42.16
2019-04-04T03:22:28.407Z,42.18
2019-04-04T03:23:08.811Z,42.21
2019-04-04T03:23:42.745Z,42.26
2019-04-04T03:24:38.682Z,42.27
2019-04-04T03:25:08.673Z,42.29
2019-04-04T03:25:46.759Z,42.29
2019-04-04T03:26:18.980Z,42.43
2019-04-04T03:26:52.217Z,42.50
2019-04-04T03:27:25.801Z,42.44
2019-04-04T03:27:58.264Z,42.37
2019-04-04T03:28:31.862Z,42.46
2019-04-04T03:29:05.466Z,42.44
2019-04-04T03:29:39.179Z,42.50
2019-04-04T03:30:14.347Z,42.51
2019-04-04T03:31:00.620Z,42.49
2019-04-04T03:31:22.600Z,42.46
2019-04-04T03:31:53.960Z,42.49
2019-04-04T03:32:25.257Z,42.42
2019-04-04T03:33:02.265Z,42.52
2019-04-04T03:33:33.643Z,42.51
2019-04-04T03:34:12.459Z,42.63
2019-04-04T03:34:47.803Z,42.67
2019-04-04T03:35:16.126Z,42.72
2019-04-04T03:35:48.386Z,42.60
2019-04-04T03:36:19.699Z,42.56
2019-04-04T03:36:53.750Z,42.66
2019-04-04T03:37:25.065Z,42.72
2019-04-04T03:37:57.304Z,42.75
2019-04-04T03:38:34.693Z,42.77
2019-04-04T03:39:11.932Z,42.67
2019-04-04T03:39:43.240Z,42.58
2019-04-04T03:40:25.931Z,42.69
2019-04-04T03:41:13.921Z,42.74
2019-04-04T03:41:45.173Z,42.69
2019-04-04T03:42:16.497Z,42.69
2019-04-04T03:42:59.643Z,42.69
2019-04-04T03:43:36.625Z,42.69
2019-04-04T03:44:13.780Z,42.74
2019-04-04T03:44:45.098Z,42.77
2019-04-04T03:45:27.322Z,42.76
2019-04-04T03:46:09.709Z,42.80
2019-04-04T03:46:40.961Z,42.75
2019-04-04T03:47:12.258Z,42.88
2019-04-04T03:47:50.301Z,42.99
2019-04-04T03:48:21.575Z,42.96
2019-04-04T03:48:58.555Z,42.97
2019-04-04T03:49:48.064Z,42.92
2019-04-04T03:50:22.197Z,42.81
2019-04-04T03:50:56.745Z,42.86
2019-04-04T03:51:37.084Z,42.91
2019-04-04T03:52:10.099Z,42.93
2019-04-04T03:52:44.276Z,42.97
2019-04-04T03:53:19.084Z,43.07
2019-04-04T03:53:55.191Z,43.09
2019-04-04T03:54:29.026Z,43.11
2019-04-04T03:55:00.450Z,43.10
2019-04-04T03:55:31.875Z,43.06
2019-04-04T03:56:06.361Z,43.08
2019-04-04T03:56:43.606Z,43.11
2019-04-04T03:57:27.743Z,43.11
2019-04-04T03:57:59.165Z,43.16
2019-04-04T03:58:30.511Z,43.15
2019-04-04T03:59:01.934Z,43.22
2019-04-04T03:59:33.414Z,43.25
2019-04-04T04:00:07.236Z,43.23
2019-04-04T04:00:46.400Z,43.19
2019-04-04T04:01:20.489Z,43.11
2019-04-04T04:02:01.522Z,43.17
2019-04-04T04:02:41.438Z,43.20
2019-04-04T04:03:12.718Z,43.19
2019-04-04T04:03:43.986Z,43.29
2019-04-04T04:04:21.126Z,43.25
2019-04-04T04:05:00.883Z,43.22
2019-04-04T04:05:35.728Z,43.22
2019-04-04T04:06:09.107Z,43.27
2019-04-04T04:06:42.058Z,43.26
2019-04-04T04:07:15.063Z,43.32
2019-04-04T04:07:48.058Z,43.30
2019-04-04T04:08:21.988Z,43.32
2019-04-04T04:08:54.821Z,43.36
2019-04-04T04:09:27.277Z,43.34
2019-04-04T04:09:59.795Z,43.30
2019-04-04T04:10:33.275Z,43.28
2019-04-04T04:11:05.804Z,43.24
2019-04-04T04:11:38.204Z,43.25
2019-04-04T04:12:11.065Z,43.37
2019-04-04T04:12:43.844Z,43.33
2019-04-04T04:13:17.287Z,43.36
2019-04-04T04:13:49.944Z,43.44
2019-04-04T04:14:22.129Z,43.44
2019-04-04T04:14:55.083Z,43.44
2019-04-04T04:15:29.355Z,43.37
2019-04-04T04:16:02.528Z,43.39
2019-04-04T04:16:35.929Z,43.36
2019-04-04T04:17:06.588Z,43.43
2019-04-04T04:17:39.637Z,43.38
2019-04-04T04:18:10.861Z,43.54
2019-04-04T04:18:42.092Z,43.43
2019-04-04T04:19:13.295Z,43.57
2019-04-04T04:19:44.451Z,43.60
2019-04-04T04:20:15.662Z,43.57
2019-04-04T04:20:46.920Z,43.54
2019-04-04T04:21:19.128Z,43.55
2019-04-04T04:21:50.282Z,43.60
2019-04-04T04:22:21.484Z,43.60
2019-04-04T04:22:53.644Z,43.72
2019-04-04T04:23:24.846Z,43.74
2019-04-04T04:23:56.916Z,43.62
2019-04-04T04:24:30.281Z,43.68
2019-04-04T04:25:03.271Z,43.52
2019-04-04T04:25:36.519Z,43.50
2019-04-04T04:26:09.319Z,43.57
2019-04-04T04:26:42.097Z,43.56
2019-04-04T04:27:15.587Z,43.53
2019-04-04T04:27:48.796Z,43.51
2019-04-04T04:28:20.855Z,43.46
2019-04-04T04:28:53.515Z,43.43
2019-04-04T04:29:26.982Z,43.54
2019-04-04T04:30:00.217Z,43.60
2019-04-04T04:30:31.141Z,43.56
2019-04-04T04:31:02.373Z,43.58
2019-04-04T04:31:33.604Z,43.55
2019-04-04T04:32:04.796Z,43.56
2019-04-04T04:32:37.393Z,43.68
2019-04-04T04:33:08.831Z,43.55
2019-04-04T04:33:40.032Z,43.60
2019-04-04T04:34:11.203Z,43.58
2019-04-04T04:34:42.383Z,43.53
2019-04-04T04:35:13.559Z,43.52
2019-04-04T04:35:44.750Z,43.45
2019-04-04T04:36:16.467Z,43.43
2019-04-04T04:36:48.552Z,43.43
2019-04-04T04:37:20.428Z,43.52
2019-04-04T04:37:53.859Z,43.49
2019-04-04T04:38:26.787Z,43.58
2019-04-04T04:38:59.980Z,43.40
2019-04-04T04:39:35.906Z,43.37
2019-04-04T04:40:08.021Z,43.48
2019-04-04T04:40:39.331Z,43.54
2019-04-04T04:41:10.552Z,43.63
2019-04-04T04:41:41.744Z,43.48
2019-04-04T04:42:12.934Z,43.41
2019-04-04T04:42:44.114Z,43.46
2019-04-04T04:43:16.009Z,43.45
2019-04-04T04:43:47.318Z,43.48
2019-04-04T04:44:18.521Z,43.45
2019-04-04T04:44:49.705Z,43.49
2019-04-04T04:45:20.856Z,43.55
2019-04-04T04:45:52.075Z,43.63
2019-04-04T04:46:23.228Z,43.68
2019-04-04T04:46:54.726Z,43.62
2019-04-04T04:47:25.888Z,43.70
2019-04-04T04:47:57.442Z,43.66
2019-04-04T04:48:31.841Z,43.67
2019-04-04T04:49:04.302Z,43.64
2019-04-04T04:49:36.348Z,43.69
2019-04-04T04:50:09.539Z,43.60
2019-04-04T04:50:41.135Z,43.64
2019-04-04T04:51:12.783Z,43.68
2019-04-04T04:51:44.291Z,43.76
2019-04-04T04:52:15.579Z,43.90
2019-04-04T04:52:47.585Z,43.92
2019-04-04T04:53:19.629Z,43.79
2019-04-04T04:53:51.338Z,43.64
2019-04-04T04:54:23.477Z,43.61
2019-04-04T04:54:55.573Z,43.49
2019-04-04T04:55:31.582Z,43.45
2019-04-04T04:56:02.841Z,43.53
2019-04-04T04:56:34.088Z,43.61
2019-04-04T04:57:05.352Z,43.55
2019-04-04T04:57:37.196Z,43.63
2019-04-04T04:58:10.473Z,43.66
2019-04-04T04:58:42.731Z,43.66
2019-04-04T04:59:14.058Z,43.50
2019-04-04T04:59:45.326Z,43.41
2019-04-04T05:00:16.784Z,43.51
2019-04-04T05:00:48.064Z,43.62
2019-04-04T05:01:20.394Z,43.54
2019-04-04T05:01:51.636Z,43.50
2019-04-04T05:02:24.732Z,43.57
2019-04-04T05:02:55.934Z,43.64
2019-04-04T05:03:27.090Z,43.70
2019-04-04T05:03:58.303Z,43.67
2019-04-04T05:04:29.452Z,43.88
2019-04-04T05:05:00.705Z,43.89
2019-04-04T05:05:32.052Z,43.79
2019-04-04T05:06:03.540Z,43.81
2019-04-04T05:06:35.596Z,43.61
2019-04-04T05:07:08.138Z,43.69
2019-04-04T05:07:39.361Z,43.68
2019-04-04T05:08:10.730Z,43.74
2019-04-04T05:08:41.925Z,43.74
2019-04-04T05:09:14.100Z,43.76
2019-04-04T05:09:45.773Z,43.71
2019-04-04T05:10:17.979Z,43.78
2019-04-04T05:10:49.137Z,43.89
2019-04-04T05:11:20.370Z,43.75
2019-04-04T05:11:51.532Z,43.79
2019-04-04T05:12:22.748Z,43.80
2019-04-04T05:12:54.004Z,43.79
2019-04-04T05:13:28.562Z,43.72
2019-04-04T05:13:58.836Z,43.80
2019-04-04T05:14:30.440Z,44.00
2019-04-04T05:15:05.497Z,43.94
2019-04-04T05:15:36.680Z,43.97
2019-04-04T05:16:08.961Z,43.91
2019-04-04T05:16:40.219Z,43.97
2019-04-04T05:17:11.432Z,43.89
2019-04-04T05:17:42.621Z,43.86
2019-04-04T05:18:14.140Z,43.84
2019-04-04T05:18:48.125Z,43.88
2019-04-04T05:19:19.728Z,43.85
2019-04-04T05:19:50.912Z,43.87
2019-04-04T05:20:23.123Z,43.85
2019-04-04T05:20:57.343Z,43.90
2019-04-04T05:21:28.942Z,43.93
2019-04-04T05:22:00.687Z,43.96
2019-04-04T05:22:31.889Z,43.99
2019-04-04T05:23:03.058Z,43.92
2019-04-04T05:23:34.237Z,43.80
2019-04-04T05:24:06.472Z,43.77
2019-04-04T05:24:37.707Z,43.78
2019-04-04T05:25:09.161Z,43.78
2019-04-04T05:25:51.736Z,43.91
2019-04-04T05:26:13.479Z,43.95
2019-04-04T05:26:44.642Z,43.89
2019-04-04T05:27:15.828Z,43.85
2019-04-04T05:27:46.992Z,43.85
2019-04-04T05:28:18.290Z,43.76
2019-04-04T05:28:49.448Z,43.77
2019-04-04T05:29:20.669Z,43.89
2019-04-04T05:29:51.801Z,43.78
2019-04-04T05:30:23.007Z,43.81
2019-04-04T05:30:54.175Z,43.71
2019-04-04T05:31:26.481Z,43.58
2019-04-04T05:31:57.629Z,43.61
2019-04-04T05:32:28.827Z,43.63
2019-04-04T05:33:00.010Z,43.73
2019-04-04T05:33:31.672Z,43.69
2019-04-04T05:34:03.212Z,43.59
2019-04-04T05:34:34.391Z,43.50
2019-04-04T05:35:05.572Z,43.64
2019-04-04T05:35:37.836Z,43.61
2019-04-04T05:36:09.140Z,43.51
2019-04-04T05:36:40.343Z,43.54
2019-04-04T05:37:11.492Z,43.53
2019-04-04T05:37:42.726Z,43.50
2019-04-04T05:38:13.893Z,43.60
2019-04-04T05:38:47.160Z,43.64
2019-04-04T05:39:18.785Z,43.67
2019-04-04T05:39:51.431Z,43.71
2019-04-04T05:40:24.151Z,43.72
2019-04-04T05:40:56.123Z,43.59
2019-04-04T05:41:28.054Z,43.55
2019-04-04T05:42:01.038Z,43.60
2019-04-04T05:42:33.012Z,43.58
2019-04-04T05:43:04.977Z,43.54
2019-04-04T05:43:37.534Z,43.39
2019-04-04T05:44:10.212Z,43.49
2019-04-04T05:44:42.333Z,43.56
2019-04-04T05:45:14.296Z,43.54
2019-04-04T05:45:46.395Z,43.52
2019-04-04T05:46:19.025Z,43.50
2019-04-04T05:46:51.940Z,43.54
2019-04-04T05:47:23.912Z,43.43
2019-04-04T05:47:57.150Z,43.38
2019-04-04T05:48:29.105Z,43.23
2019-04-04T05:49:07.541Z,43.26
2019-04-04T05:49:33.974Z,43.32
2019-04-04T05:50:05.277Z,43.35
2019-04-04T05:50:36.493Z,43.37
2019-04-04T05:51:07.659Z,43.42
2019-04-04T05:51:38.945Z,43.47
2019-04-04T05:52:10.092Z,43.35
2019-04-04T05:52:41.291Z,43.36
2019-04-04T05:53:15.564Z,43.32
2019-04-04T05:53:46.783Z,43.35
2019-04-04T05:54:17.915Z,43.39
2019-04-04T05:54:49.149Z,43.51
2019-04-04T05:55:20.284Z,43.48
2019-04-04T05:55:51.584Z,43.50
2019-04-04T05:56:24.208Z,43.38
2019-04-04T05:56:55.790Z,43.53
2019-04-04T05:57:26.948Z,43.52
2019-04-04T05:57:58.165Z,43.37
2019-04-04T05:58:29.316Z,43.35
2019-04-04T05:59:02.042Z,43.34
2019-04-04T05:59:33.207Z,43.34
2019-04-04T06:00:05.227Z,43.24
2019-04-04T06:00:37.117Z,43.45
2019-04-04T06:01:18.842Z,43.38
2019-04-04T06:01:50.120Z,43.45
2019-04-04T06:02:21.356Z,43.48
2019-04-04T06:02:52.530Z,43.42
2019-04-04T06:03:23.784Z,43.40
2019-04-04T06:03:55.087Z,43.31
2019-04-04T06:04:26.287Z,43.33
2019-04-04T06:04:57.586Z,43.33
2019-04-04T06:05:31.666Z,43.20
2019-04-04T06:06:02.032Z,43.18
2019-04-04T06:06:34.103Z,43.20
2019-04-04T06:07:05.469Z,43.09
2019-04-04T06:07:37.212Z,42.98
2019-04-04T06:08:08.812Z,43.04
2019-04-04T06:08:43.249Z,43.01
2019-04-04T06:09:14.694Z,42.93
2019-04-04T06:09:46.961Z,42.91
2019-04-04T06:10:19.092Z,42.91
2019-04-04T06:10:50.859Z,42.90
2019-04-04T06:11:22.121Z,42.99
2019-04-04T06:11:54.369Z,43.04
2019-04-04T06:12:25.763Z,42.94
2019-04-04T06:12:57.115Z,42.91
2019-04-04T06:13:28.383Z,42.81
2019-04-04T06:13:59.689Z,42.69
2019-04-04T06:14:31.124Z,42.64
2019-04-04T06:15:04.169Z,42.74
2019-04-04T06:15:35.403Z,42.71
2019-04-04T06:16:06.611Z,42.84
2019-04-04T06:16:37.806Z,42.78
2019-04-04T06:17:09.022Z,42.75
2019-04-04T06:17:40.274Z,42.90
2019-04-04T06:18:12.021Z,42.87
2019-04-04T06:18:43.627Z,42.78
2019-04-04T06:19:15.051Z,42.80
2019-04-04T06:19:46.415Z,42.63
2019-04-04T06:20:17.663Z,42.62
2019-04-04T06:20:49.103Z,42.67
2019-04-04T06:21:20.402Z,42.83
2019-04-04T06:21:51.562Z,43.00
2019-04-04T06:22:22.759Z,43.20
2019-04-04T06:22:53.892Z,43.11
2019-04-04T06:23:25.749Z,42.99
2019-04-04T06:23:56.975Z,42.96
2019-04-04T06:24:28.155Z,42.96
2019-04-04T06:24:59.974Z,43.05
2019-04-04T06:25:34.841Z,42.92
2019-04-04T06:26:07.428Z,42.90
2019-04-04T06:26:38.830Z,42.82
2019-04-04T06:27:10.053Z,42.84
2019-04-04T06:27:41.215Z,42.92
2019-04-04T06:28:12.687Z,42.77
2019-04-04T06:28:44.475Z,42.59
2019-04-04T06:29:17.350Z,42.52
2019-04-04T06:29:49.228Z,42.66
2019-04-04T06:30:20.794Z,42.61
2019-04-04T06:30:54.234Z,42.69
2019-04-04T06:31:26.932Z,42.53
2019-04-04T06:32:00.491Z,42.49
2019-04-04T06:32:31.699Z,42.46
2019-04-04T06:33:04.831Z,42.20
2019-04-04T06:33:35.979Z,42.12
2019-04-04T06:34:10.055Z,42.01
2019-04-04T06:34:42.075Z,42.05
2019-04-04T06:35:15.462Z,42.19
2019-04-04T06:35:47.849Z,42.14
2019-04-04T06:36:19.202Z,42.28
2019-04-04T06:36:50.377Z,42.39
2019-04-04T06:37:21.562Z,42.51
2019-04-04T06:37:52.744Z,42.49
2019-04-04T06:38:24.157Z,42.39
2019-04-04T06:38:55.395Z,42.44
2019-04-04T06:39:26.597Z,42.39
2019-04-04T06:39:58.859Z,42.46
2019-04-04T06:40:31.006Z,42.34
2019-04-04T06:41:02.530Z,42.35
2019-04-04T06:41:34.576Z,42.29
2019-04-04T06:42:05.720Z,42.27
2019-04-04T06:42:37.148Z,42.14
2019-04-04T06:43:11.595Z,42.19
2019-04-04T06:43:42.093Z,42.22
2019-04-04T06:44:13.718Z,42.26
2019-04-04T06:44:45.046Z,42.16
2019-04-04T06:45:16.287Z,42.24
2019-04-04T06:45:47.601Z,42.17
2019-04-04T06:46:22.533Z,42.21
2019-04-04T06:46:53.492Z,41.82
2019-04-04T06:47:25.505Z,41.74
2019-04-04T06:47:58.242Z,41.86
2019-04-04T06:48:33.472Z,41.88
2019-04-04T06:49:04.408Z,41.86
2019-04-04T06:49:36.269Z,41.99
2019-04-04T06:50:08.482Z,41.96
2019-04-04T06:50:42.895Z,42.01
2019-04-04T06:51:14.243Z,41.86
2019-04-04T06:51:46.462Z,41.95
2019-04-04T06:52:19.200Z,41.86
2019-04-04T06:52:51.135Z,41.78
2019-04-04T06:53:22.816Z,41.74
2019-04-04T06:53:54.564Z,41.80
2019-04-04T06:54:26.332Z,41.87
2019-04-04T06:54:58.042Z,41.79
2019-04-04T06:55:29.509Z,41.85
2019-04-04T06:56:01.055Z,41.84
2019-04-04T06:56:32.596Z,41.89
2019-04-04T06:57:04.694Z,41.96
2019-04-04T06:57:36.818Z,41.88
2019-04-04T06:58:09.716Z,41.79
2019-04-04T06:58:40.935Z,41.75
2019-04-04T06:59:12.457Z,41.86
2019-04-04T06:59:44.006Z,41.84
2019-04-04T07:00:15.891Z,41.89
2019-04-04T07:00:49.987Z,41.88
2019-04-04T07:01:21.907Z,41.83